C6048 PADQ-PADQ

Flight info

Callsign C6048
Flight time 0h 19m
Altitude 1000
Route /
Aircraft H60/M-GV/L

Departure

Time 2026-05-04 15:16
Airport Kodiak Airport (PADQ)

Arrival

Time 2026-05-04 15:36
Airport Kodiak Airport (PADQ)
Time Latitude Longitude Altitude Speed Heading
2026-05-04 13:45 57.73832 -152.50800 11 ft 0 kts 125°
2026-05-04 13:50 57.73828 -152.50792 11 ft 3 kts 141°
2026-05-04 13:51 57.73806 -152.50794 11 ft 3 kts 221°
2026-05-04 13:51 57.73794 -152.50816 11 ft 1 kts 226°
2026-05-04 13:51 57.73793 -152.50819 11 ft 0 kts 226°
2026-05-04 13:51 57.73790 -152.50825 11 ft 1 kts 226°
2026-05-04 13:52 57.73759 -152.50850 11 ft 5 kts 154°
2026-05-04 13:52 57.73636 -152.50902 58 ft 51 kts 199°
2026-05-04 13:52 57.73171 -152.50239 307 ft 116 kts 115°
2026-05-04 13:53 57.72783 -152.48776 661 ft 139 kts 112°
2026-05-04 13:53 57.72247 -152.47091 553 ft 158 kts 117°
2026-05-04 13:53 57.71673 -152.45383 513 ft 155 kts 118°
2026-05-04 13:54 57.70662 -152.41842 552 ft 152 kts 115°
2026-05-04 13:54 57.70174 -152.40089 557 ft 152 kts 115°
2026-05-04 13:54 57.69190 -152.36581 559 ft 151 kts 115°
2026-05-04 13:55 57.68698 -152.34832 554 ft 149 kts 115°
2026-05-04 13:55 57.67697 -152.31440 557 ft 152 kts 115°
2026-05-04 13:55 57.67215 -152.29696 558 ft 151 kts 115°
2026-05-04 13:56 57.66728 -152.28000 559 ft 147 kts 115°
2026-05-04 13:56 57.66232 -152.26303 558 ft 149 kts 115°
2026-05-04 13:56 57.65257 -152.22919 541 ft 147 kts 115°
2026-05-04 13:57 57.64782 -152.21215 542 ft 149 kts 115°
2026-05-04 13:57 57.64317 -152.19492 541 ft 149 kts 115°
2026-05-04 13:58 57.62921 -152.14316 535 ft 145 kts 115°
2026-05-04 13:58 57.62036 -152.10980 538 ft 143 kts 115°
2026-05-04 13:58 57.61591 -152.09317 538 ft 144 kts 115°
2026-05-04 13:59 57.61142 -152.07621 538 ft 148 kts 115°
2026-05-04 13:59 57.60681 -152.05910 537 ft 147 kts 115°
2026-05-04 13:59 57.59757 -152.02532 537 ft 145 kts 115°
2026-05-04 14:00 57.59321 -152.00868 534 ft 145 kts 115°
2026-05-04 14:00 57.58436 -151.97509 537 ft 143 kts 115°
2026-05-04 14:00 57.57997 -151.95849 539 ft 141 kts 115°
2026-05-04 14:01 57.57568 -151.94192 531 ft 140 kts 115°
2026-05-04 14:01 57.57122 -151.92567 535 ft 139 kts 115°
2026-05-04 14:01 57.56253 -151.89287 535 ft 142 kts 115°
2026-05-04 14:02 57.55814 -151.87620 534 ft 141 kts 115°
2026-05-04 14:02 57.55386 -151.85973 533 ft 142 kts 115°
2026-05-04 14:02 57.54959 -151.84341 531 ft 130 kts 115°
2026-05-04 14:02 57.54555 -151.82821 532 ft 139 kts 115°
2026-05-04 14:03 57.54117 -151.81201 533 ft 138 kts 115°
2026-05-04 14:03 57.53681 -151.79603 534 ft 138 kts 115°
2026-05-04 14:03 57.53242 -151.77983 534 ft 138 kts 115°
2026-05-04 14:03 57.52818 -151.76422 535 ft 136 kts 115°
2026-05-04 14:04 57.51971 -151.73289 531 ft 134 kts 115°
2026-05-04 14:04 57.51568 -151.71756 531 ft 131 kts 115°
2026-05-04 14:04 57.51166 -151.70238 532 ft 131 kts 115°
2026-05-04 14:05 57.50347 -151.67173 532 ft 133 kts 115°
2026-05-04 14:05 57.49935 -151.65631 532 ft 130 kts 115°
2026-05-04 14:05 57.49530 -151.64102 531 ft 135 kts 115°
2026-05-04 14:06 57.49121 -151.62544 532 ft 134 kts 115°
2026-05-04 14:06 57.48699 -151.60988 531 ft 138 kts 115°
2026-05-04 14:06 57.48271 -151.59406 531 ft 135 kts 115°
2026-05-04 14:06 57.47850 -151.57847 532 ft 136 kts 115°
2026-05-04 14:07 57.47438 -151.56291 526 ft 132 kts 115°
2026-05-04 14:07 57.47026 -151.54758 527 ft 136 kts 115°
2026-05-04 14:07 57.46610 -151.53200 529 ft 131 kts 115°
2026-05-04 14:07 57.46207 -151.51671 529 ft 132 kts 115°
2026-05-04 14:08 57.45802 -151.50140 529 ft 133 kts 115°
2026-05-04 14:08 57.45398 -151.48606 529 ft 132 kts 115°
2026-05-04 14:08 57.44998 -151.47088 529 ft 131 kts 115°
2026-05-04 14:08 57.44591 -151.45560 529 ft 133 kts 115°
2026-05-04 14:09 57.43827 -151.42439 528 ft 132 kts 111°
2026-05-04 14:09 57.43491 -151.40841 528 ft 131 kts 111°
2026-05-04 14:10 57.42801 -151.37657 528 ft 134 kts 111°
2026-05-04 14:10 57.42439 -151.36081 529 ft 133 kts 111°
2026-05-04 14:10 57.42071 -151.34498 529 ft 133 kts 111°
2026-05-04 14:10 57.41708 -151.32929 527 ft 132 kts 111°
2026-05-04 14:11 57.41363 -151.31398 531 ft 129 kts 111°
2026-05-04 14:11 57.40695 -151.28331 536 ft 131 kts 111°
2026-05-04 14:11 57.40357 -151.26774 534 ft 134 kts 111°
2026-05-04 14:12 57.40014 -151.25212 529 ft 133 kts 111°
2026-05-04 14:12 57.39672 -151.23681 530 ft 131 kts 111°
2026-05-04 14:12 57.38953 -151.20561 533 ft 133 kts 111°
2026-05-04 14:13 57.38595 -151.18954 533 ft 137 kts 111°
2026-05-04 14:13 57.38231 -151.17307 532 ft 139 kts 111°
2026-05-04 14:13 57.37881 -151.15676 531 ft 139 kts 111°
2026-05-04 14:13 57.37547 -151.14026 529 ft 140 kts 111°
2026-05-04 14:14 57.37219 -151.12449 530 ft 135 kts 111°
2026-05-04 14:14 57.36569 -151.09167 533 ft 140 kts 111°
2026-05-04 14:14 57.36245 -151.07590 533 ft 129 kts 116°
2026-05-04 14:15 57.35374 -151.04588 534 ft 134 kts 116°
2026-05-04 14:15 57.34527 -151.01502 535 ft 132 kts 116°
2026-05-04 14:16 57.33691 -150.98536 536 ft 130 kts 116°
2026-05-04 14:16 57.33247 -150.97068 536 ft 130 kts 116°
2026-05-04 14:17 57.32400 -150.94054 531 ft 136 kts 116°
2026-05-04 14:17 57.31986 -150.92501 531 ft 132 kts 116°
2026-05-04 14:17 57.31154 -150.89462 531 ft 129 kts 116°
2026-05-04 14:18 57.30745 -150.87977 531 ft 132 kts 116°
2026-05-04 14:18 57.29943 -150.84986 531 ft 131 kts 116°
2026-05-04 14:19 57.29120 -150.81969 532 ft 133 kts 116°
2026-05-04 14:19 57.28687 -150.80468 532 ft 135 kts 116°
2026-05-04 14:19 57.28248 -150.78948 531 ft 135 kts 116°
2026-05-04 14:19 57.27813 -150.77427 532 ft 134 kts 116°
2026-05-04 14:20 57.27383 -150.75902 532 ft 133 kts 116°
2026-05-04 14:20 57.26956 -150.74379 532 ft 133 kts 116°
2026-05-04 14:20 57.26542 -150.72855 531 ft 133 kts 116°
2026-05-04 14:21 57.25737 -150.69880 534 ft 124 kts 116°
2026-05-04 14:21 57.25315 -150.68434 532 ft 128 kts 116°
2026-05-04 14:21 57.24887 -150.66960 536 ft 126 kts 116°
2026-05-04 14:21 57.24459 -150.65499 535 ft 129 kts 116°
2026-05-04 14:22 57.24030 -150.63997 533 ft 131 kts 116°
2026-05-04 14:22 57.23622 -150.62524 535 ft 128 kts 116°
2026-05-04 14:22 57.23223 -150.61013 534 ft 130 kts 116°
2026-05-04 14:22 57.22839 -150.59558 533 ft 131 kts 116°
2026-05-04 14:23 57.22050 -150.56616 535 ft 125 kts 116°
2026-05-04 14:23 57.21656 -150.55162 536 ft 128 kts 116°
2026-05-04 14:23 57.21262 -150.53685 536 ft 129 kts 116°
2026-05-04 14:24 57.20870 -150.52189 531 ft 129 kts 116°
2026-05-04 14:24 57.20479 -150.50702 532 ft 128 kts 116°
2026-05-04 14:24 57.20079 -150.49186 537 ft 130 kts 113°
2026-05-04 14:24 57.19720 -150.47668 539 ft 127 kts 113°
2026-05-04 14:25 57.19356 -150.46113 537 ft 132 kts 113°
2026-05-04 14:25 57.18637 -150.43017 537 ft 133 kts 113°
2026-05-04 14:25 57.18282 -150.41484 538 ft 131 kts 113°
2026-05-04 14:26 57.17929 -150.39899 534 ft 133 kts 113°
2026-05-04 14:26 57.17591 -150.38348 533 ft 131 kts 113°
2026-05-04 14:26 57.17251 -150.36783 535 ft 132 kts 113°
2026-05-04 14:26 57.16917 -150.35244 534 ft 133 kts 113°
2026-05-04 14:27 57.16577 -150.33683 534 ft 128 kts 113°
2026-05-04 14:27 57.16246 -150.32158 534 ft 128 kts 113°
2026-05-04 14:27 57.15911 -150.30620 534 ft 132 kts 113°
2026-05-04 14:27 57.15571 -150.29063 535 ft 130 kts 113°
2026-05-04 14:28 57.15242 -150.27543 536 ft 127 kts 113°
2026-05-04 14:28 57.14915 -150.26026 538 ft 125 kts 113°
2026-05-04 14:28 57.14593 -150.24533 537 ft 125 kts 113°
2026-05-04 14:28 57.14271 -150.23045 537 ft 125 kts 113°
2026-05-04 14:29 57.13616 -150.20010 537 ft 131 kts 113°
2026-05-04 14:29 57.12958 -150.16964 536 ft 128 kts 113°
2026-05-04 14:30 57.12683 -150.15428 539 ft 121 kts 99°
2026-05-04 14:30 57.12634 -150.13915 541 ft 117 kts 84°
2026-05-04 14:30 57.13414 -150.11250 532 ft 138 kts 56°
2026-05-04 14:31 57.14108 -150.09913 555 ft 142 kts 56°
2026-05-04 14:31 57.15464 -150.07312 550 ft 140 kts 56°
2026-05-04 14:32 57.15796 -150.05225 505 ft 103 kts 126°
2026-05-04 14:32 57.15457 -150.05292 764 ft 80 kts 267°
2026-05-04 14:32 57.15427 -150.06699 225 ft 130 kts 307°
2026-05-04 14:32 57.15754 -150.07474 354 ft 36 kts 85°
2026-05-04 14:33 57.15838 -150.07067 202 ft 51 kts 92°
2026-05-04 14:33 57.15939 -150.06596 262 ft 28 kts 89°
2026-05-04 14:33 57.15916 -150.06138 49 ft 39 kts 114°
2026-05-04 14:33 57.15841 -150.06037 26 ft 15 kts 136°
2026-05-04 14:34 57.15861 -150.05954 20 ft 9 kts 128°
2026-05-04 14:34 57.15802 -150.05995 26 ft 4 kts 135°
2026-05-04 14:34 57.15849 -150.05997 17 ft 5 kts 143°
2026-05-04 14:34 57.15793 -150.05953 25 ft 1 kts 143°
2026-05-04 14:35 57.15801 -150.05928 26 ft 6 kts 149°
2026-05-04 14:35 57.15771 -150.05950 26 ft 1 kts 148°
2026-05-04 14:35 57.15765 -150.05932 62 ft 4 kts 146°
2026-05-04 14:35 57.15769 -150.05898 75 ft 7 kts 146°
2026-05-04 14:36 57.15765 -150.05937 114 ft 21 kts 153°
2026-05-04 14:36 57.15791 -150.05913 104 ft 8 kts 127°
2026-05-04 14:36 57.15785 -150.05911 83 ft 11 kts 132°
2026-05-04 14:36 57.15775 -150.05930 65 ft 5 kts 131°
2026-05-04 14:37 57.15769 -150.05925 66 ft 3 kts 135°
2026-05-04 14:37 57.15795 -150.05893 31 ft 7 kts 132°
2026-05-04 14:37 57.15773 -150.05865 49 ft 4 kts 178°
2026-05-04 14:37 57.15742 -150.05889 45 ft 9 kts 194°
2026-05-04 14:38 57.15724 -150.05910 27 ft 8 kts 213°
2026-05-04 14:38 57.15721 -150.05928 47 ft 3 kts 232°
2026-05-04 14:38 57.15779 -150.06124 220 ft 34 kts 294°
2026-05-04 14:38 57.16029 -150.06612 372 ft 90 kts 340°
2026-05-04 14:39 57.16759 -150.07435 632 ft 146 kts 340°
2026-05-04 14:39 57.17702 -150.08561 780 ft 183 kts 322°
2026-05-04 14:39 57.18613 -150.10603 493 ft 215 kts 298°
2026-05-04 14:40 57.20131 -150.14937 495 ft 185 kts 298°
2026-05-04 14:40 57.20709 -150.17052 451 ft 180 kts 298°
2026-05-04 14:40 57.21283 -150.19177 413 ft 183 kts 298°
2026-05-04 14:40 57.21845 -150.21318 402 ft 180 kts 298°
2026-05-04 14:41 57.22404 -150.23423 404 ft 186 kts 298°
2026-05-04 14:41 57.22968 -150.25560 410 ft 184 kts 298°
2026-05-04 14:41 57.24075 -150.29944 406 ft 187 kts 298°
2026-05-04 14:42 57.25208 -150.34209 411 ft 182 kts 298°
2026-05-04 14:42 57.25763 -150.36288 412 ft 186 kts 298°
2026-05-04 14:42 57.26343 -150.38467 410 ft 187 kts 298°
2026-05-04 14:43 57.26915 -150.40603 413 ft 186 kts 298°
2026-05-04 14:43 57.27479 -150.42786 405 ft 188 kts 298°
2026-05-04 14:43 57.28032 -150.44937 402 ft 183 kts 298°
2026-05-04 14:43 57.28575 -150.47053 396 ft 183 kts 298°
2026-05-04 14:44 57.29121 -150.49166 401 ft 181 kts 298°
2026-05-04 14:44 57.29658 -150.51277 402 ft 184 kts 298°
2026-05-04 14:44 57.30206 -150.53431 404 ft 181 kts 298°
2026-05-04 14:44 57.30744 -150.55548 404 ft 183 kts 298°
2026-05-04 14:45 57.31300 -150.57723 403 ft 189 kts 298°
2026-05-04 14:45 57.31863 -150.59890 405 ft 185 kts 298°
2026-05-04 14:45 57.32428 -150.62076 403 ft 188 kts 298°
2026-05-04 14:45 57.32984 -150.64220 402 ft 182 kts 298°
2026-05-04 14:46 57.33540 -150.66342 398 ft 181 kts 298°
2026-05-04 14:46 57.34100 -150.68490 401 ft 185 kts 298°
2026-05-04 14:46 57.34652 -150.70668 398 ft 188 kts 297°
2026-05-04 14:46 57.35194 -150.72858 402 ft 181 kts 298°
2026-05-04 14:47 57.35711 -150.74973 399 ft 177 kts 298°
2026-05-04 14:47 57.36232 -150.77078 400 ft 181 kts 298°
2026-05-04 14:47 57.36758 -150.79189 401 ft 181 kts 298°
2026-05-04 14:47 57.37278 -150.81369 399 ft 189 kts 297°
2026-05-04 14:48 57.37790 -150.83642 393 ft 187 kts 297°
2026-05-04 14:48 57.38314 -150.85824 398 ft 185 kts 297°
2026-05-04 14:48 57.38859 -150.87959 398 ft 185 kts 297°
2026-05-04 14:48 57.39414 -150.90102 396 ft 180 kts 297°
2026-05-04 14:49 57.39952 -150.92263 395 ft 188 kts 298°
2026-05-04 14:49 57.40484 -150.94436 388 ft 185 kts 298°
2026-05-04 14:49 57.40984 -150.96523 390 ft 181 kts 297°
2026-05-04 14:49 57.41496 -150.98625 391 ft 181 kts 296°
2026-05-04 14:50 57.41982 -151.00716 386 ft 181 kts 297°
2026-05-04 14:50 57.42464 -151.02824 390 ft 179 kts 297°
2026-05-04 14:50 57.42932 -151.04926 397 ft 171 kts 297°
2026-05-04 14:50 57.43394 -151.06981 397 ft 173 kts 297°
2026-05-04 14:51 57.43892 -151.09066 393 ft 180 kts 297°
2026-05-04 14:51 57.44429 -151.11152 390 ft 180 kts 297°
2026-05-04 14:51 57.44976 -151.13266 392 ft 180 kts 297°
2026-05-04 14:51 57.45525 -151.15415 398 ft 187 kts 297°
2026-05-04 14:52 57.46078 -151.17585 390 ft 184 kts 297°
2026-05-04 14:52 57.46628 -151.19794 390 ft 191 kts 297°
2026-05-04 14:52 57.47160 -151.21880 385 ft 181 kts 297°
2026-05-04 14:52 57.47704 -151.24036 390 ft 183 kts 297°
2026-05-04 14:53 57.48243 -151.26137 388 ft 180 kts 297°
2026-05-04 14:53 57.48760 -151.28254 387 ft 180 kts 297°
2026-05-04 14:53 57.49288 -151.30386 388 ft 179 kts 297°
2026-05-04 14:53 57.49817 -151.32508 388 ft 181 kts 297°
2026-05-04 14:54 57.50349 -151.34625 387 ft 181 kts 297°
2026-05-04 14:54 57.50886 -151.36735 387 ft 181 kts 297°
2026-05-04 14:54 57.51429 -151.38865 387 ft 181 kts 297°
2026-05-04 14:54 57.51966 -151.40973 391 ft 179 kts 297°
2026-05-04 14:55 57.52496 -151.43090 390 ft 183 kts 297°
2026-05-04 14:55 57.53028 -151.45260 391 ft 186 kts 297°
2026-05-04 14:55 57.53558 -151.47465 390 ft 187 kts 297°
2026-05-04 14:55 57.54088 -151.49657 387 ft 185 kts 297°
2026-05-04 14:56 57.54614 -151.51806 384 ft 181 kts 297°
2026-05-04 14:56 57.55142 -151.53954 386 ft 183 kts 297°
2026-05-04 14:56 57.55678 -151.56073 386 ft 181 kts 297°
2026-05-04 14:56 57.56227 -151.58187 385 ft 180 kts 297°
2026-05-04 14:57 57.56775 -151.60305 379 ft 180 kts 297°
2026-05-04 14:57 57.57303 -151.62486 382 ft 187 kts 297°
2026-05-04 14:57 57.57831 -151.64721 385 ft 195 kts 297°
2026-05-04 14:57 57.58370 -151.66925 389 ft 171 kts 297°
2026-05-04 14:58 57.58898 -151.68940 381 ft 182 kts 297°
2026-05-04 14:58 57.59424 -151.71078 386 ft 178 kts 297°
2026-05-04 14:58 57.59925 -151.73145 387 ft 181 kts 297°
2026-05-04 14:58 57.60444 -151.75249 389 ft 178 kts 297°
2026-05-04 14:59 57.60968 -151.77386 389 ft 179 kts 297°
2026-05-04 14:59 57.61505 -151.79532 396 ft 181 kts 297°
2026-05-04 14:59 57.62679 -151.83959 390 ft 200 kts 297°
2026-05-04 15:00 57.63236 -151.86113 392 ft 184 kts 297°
2026-05-04 15:00 57.63770 -151.88246 392 ft 180 kts 297°
2026-05-04 15:00 57.64283 -151.90390 386 ft 177 kts 297°
2026-05-04 15:01 57.65307 -151.94592 379 ft 179 kts 297°
2026-05-04 15:01 57.65827 -151.96697 381 ft 178 kts 297°
2026-05-04 15:01 57.66353 -151.98808 384 ft 178 kts 297°
2026-05-04 15:01 57.66852 -152.00758 385 ft 155 kts 306°
2026-05-04 15:02 57.67575 -152.02448 382 ft 170 kts 314°
2026-05-04 15:02 57.68291 -152.04148 379 ft 171 kts 314°
2026-05-04 15:02 57.69050 -152.05937 382 ft 172 kts 314°
2026-05-04 15:02 57.69815 -152.07693 381 ft 168 kts 314°
2026-05-04 15:03 57.70540 -152.09338 376 ft 171 kts 314°
2026-05-04 15:03 57.71271 -152.11043 379 ft 166 kts 314°
2026-05-04 15:03 57.71985 -152.12756 379 ft 169 kts 314°
2026-05-04 15:03 57.72717 -152.14448 377 ft 175 kts 311°
2026-05-04 15:04 57.73390 -152.16175 378 ft 159 kts 310°
2026-05-04 15:04 57.74056 -152.17890 381 ft 166 kts 310°
2026-05-04 15:04 57.74717 -152.19673 378 ft 168 kts 310°
2026-05-04 15:04 57.75379 -152.21442 380 ft 165 kts 310°
2026-05-04 15:05 57.76030 -152.23204 377 ft 160 kts 310°
2026-05-04 15:05 57.76682 -152.24905 379 ft 162 kts 310°
2026-05-04 15:05 57.77338 -152.26646 380 ft 159 kts 310°
2026-05-04 15:05 57.77979 -152.28324 379 ft 158 kts 310°
2026-05-04 15:06 57.78610 -152.30044 378 ft 163 kts 310°
2026-05-04 15:06 57.79254 -152.31754 380 ft 158 kts 310°
2026-05-04 15:06 57.79896 -152.33399 255 ft 149 kts 309°
2026-05-04 15:07 57.80757 -152.35392 567 ft 72 kts 31°
2026-05-04 15:07 57.80765 -152.34825 569 ft 49 kts 156°
2026-05-04 15:07 57.80484 -152.34995 397 ft 37 kts 201°
2026-05-04 15:07 57.80347 -152.35186 141 ft 20 kts 268°
2026-05-04 15:08 57.80395 -152.35356 71 ft 12 kts 312°
2026-05-04 15:08 57.80421 -152.35399 54 ft 4 kts 339°
2026-05-04 15:08 57.80430 -152.35403 44 ft 3 kts 341°
2026-05-04 15:08 57.80429 -152.35406 36 ft 1 kts
2026-05-04 15:09 57.80430 -152.35406 35 ft 0 kts
2026-05-04 15:12 57.80340 -152.35435 93 ft 50 kts 188°
2026-05-04 15:12 57.79825 -152.35948 291 ft 114 kts 195°
2026-05-04 15:12 57.78922 -152.36505 269 ft 154 kts 189°
2026-05-04 15:13 57.77812 -152.36702 149 ft 160 kts 182°
2026-05-04 15:13 57.76721 -152.36937 267 ft 160 kts 190°
2026-05-04 15:13 57.75635 -152.37363 134 ft 160 kts 192°
2026-05-04 15:13 57.74570 -152.37827 140 ft 155 kts 193°
2026-05-04 15:14 57.73518 -152.38360 135 ft 160 kts 196°
2026-05-04 15:14 57.72467 -152.38975 100 ft 153 kts 198°
2026-05-04 15:14 57.71479 -152.39627 216 ft 153 kts 199°
2026-05-04 15:14 57.70475 -152.40478 104 ft 160 kts 208°
2026-05-04 15:15 57.69463 -152.41221 121 ft 151 kts 195°
2026-05-04 15:15 57.68458 -152.41502 333 ft 144 kts 184°
2026-05-04 15:15 57.67473 -152.41437 564 ft 142 kts 175°
2026-05-04 15:16 57.65347 -152.41504 286 ft 155 kts 188°
2026-05-04 15:16 57.64356 -152.42153 227 ft 151 kts 201°
2026-05-04 15:16 57.62582 -152.43540 734 ft 135 kts 196°
2026-05-04 15:17 57.61575 -152.44133 384 ft 163 kts 191°
2026-05-04 15:17 57.59438 -152.44933 240 ft 155 kts 192°
2026-05-04 15:17 57.58464 -152.45581 233 ft 145 kts 217°
2026-05-04 15:18 57.57586 -152.46161 368 ft 130 kts 178°
2026-05-04 15:18 57.56790 -152.46419 406 ft 103 kts 189°
2026-05-04 15:18 57.56096 -152.46865 330 ft 107 kts 169°
2026-05-04 15:19 57.54702 -152.46761 471 ft 96 kts 160°
2026-05-04 15:19 57.54287 -152.46578 524 ft 91 kts 145°
2026-05-04 15:19 57.53122 -152.46095 496 ft 69 kts 146°
2026-05-04 15:20 57.52836 -152.45770 526 ft 37 kts 139°
2026-05-04 15:20 57.52680 -152.45675 423 ft 20 kts 142°
2026-05-04 15:20 57.52413 -152.45470 505 ft 62 kts 162°
2026-05-04 15:20 57.51993 -152.45253 674 ft 70 kts 169°
2026-05-04 15:21 57.51426 -152.45141 684 ft 83 kts 168°
2026-05-04 15:21 57.50799 -152.45168 752 ft 102 kts 176°
2026-05-04 15:21 57.49255 -152.45470 412 ft 106 kts 173°
2026-05-04 15:22 57.48612 -152.45410 298 ft 49 kts 142°
2026-05-04 15:22 57.48432 -152.45489 124 ft 15 kts 83°
2026-05-04 15:22 57.48399 -152.45159 112 ft 4 kts 86°
2026-05-04 15:23 57.48401 -152.45150 100 ft 0 kts 97°
2026-05-04 15:28 57.48404 -152.45145 191 ft 12 kts
2026-05-04 15:29 57.48700 -152.45518 760 ft 78 kts 332°
2026-05-04 15:30 57.52786 -152.46816 2519 ft 162 kts 341°
2026-05-04 15:30 57.56065 -152.48848 2994 ft 167 kts 351°
2026-05-04 15:31 57.58259 -152.50001 2939 ft 158 kts 351°
2026-05-04 15:31 57.59305 -152.50485 2938 ft 154 kts 351°
2026-05-04 15:32 57.62448 -152.51979 2947 ft 154 kts 351°
2026-05-04 15:32 57.64529 -152.52943 2943 ft 154 kts 351°
2026-05-04 15:33 57.66598 -152.53930 2941 ft 154 kts 351°
2026-05-04 15:34 57.69719 -152.55478 2948 ft 163 kts 351°
2026-05-04 15:34 57.70858 -152.55627 2960 ft 168 kts 16°
2026-05-04 15:34 57.72741 -152.53262 2442 ft 153 kts 44°
2026-05-04 15:35 57.72721 -152.50805 981 ft 150 kts 200°
2026-05-04 15:35 57.72357 -152.52089 831 ft 99 kts 322°
2026-05-04 15:35 57.72855 -152.52424 822 ft 84 kts 32°
2026-05-04 15:36 57.73774 -152.51255 248 ft 40 kts 50°
2026-05-04 15:36 57.73812 -152.51061 21 ft 1 kts 57°
2026-05-04 15:36 57.73823 -152.51049 15 ft 1 kts 44°
2026-05-04 15:37 57.73828 -152.51042 11 ft 0 kts 49°